createdAt,value
2022-12-29T00:00:08.273Z,97599.19
2022-12-29T00:02:35.015Z,97624.22
2022-12-29T00:05:01.588Z,97612.09
2022-12-29T00:07:28.201Z,97603.84
2022-12-29T00:09:54.791Z,97603.84
2022-12-29T00:12:21.357Z,97605.72
2022-12-29T00:15:06.530Z,97601.97
2022-12-29T00:17:33.534Z,97594.06
2022-12-29T00:20:18.685Z,97608.06
2022-12-29T00:23:04.128Z,97603.84
2022-12-29T00:25:49.309Z,97605.72
2022-12-29T00:28:34.375Z,97611.00
2022-12-29T00:31:20.577Z,97604.16
2022-12-29T00:34:05.582Z,97590.63
2022-12-29T00:36:43.072Z,97597.00
2022-12-29T00:39:37.467Z,97590.44
2022-12-29T00:42:24.652Z,97582.22
2022-12-29T00:44:51.250Z,97582.22
2022-12-29T00:47:17.817Z,97589.38
2022-12-29T00:49:44.871Z,97583.78
2022-12-29T00:52:13.644Z,97583.00
2022-12-29T00:54:41.689Z,97579.28
2022-12-29T00:57:10.577Z,97591.72
2022-12-29T00:59:38.537Z,97595.91
2022-12-29T01:02:05.450Z,97587.22
2022-12-29T01:04:32.315Z,97587.22
2022-12-29T01:06:59.601Z,97579.28
2022-12-29T01:09:44.732Z,97567.63
2022-12-29T01:12:11.948Z,97574.75
2022-12-29T01:14:39.154Z,97572.13
2022-12-29T01:17:06.553Z,97577.41
2022-12-29T01:19:33.133Z,97567.16
2022-12-29T01:22:00.646Z,97568.22
2022-12-29T01:24:27.423Z,97577.72
2022-12-29T01:26:55.507Z,97570.09
2022-12-29T01:29:23.333Z,97573.03
2022-12-29T01:31:50.907Z,97571.16
2022-12-29T01:34:18.892Z,97574.88
2022-12-29T01:36:45.584Z,97577.53
2022-12-29T01:39:12.206Z,97575.19
2022-12-29T01:41:38.832Z,97585.78
2022-12-29T01:44:43.988Z,97592.13
2022-12-29T01:47:11.213Z,97594.75
2022-12-29T01:49:38.440Z,97596.94
2022-12-29T01:52:08.972Z,97600.66
2022-12-29T01:54:45.095Z,97595.97
2022-12-29T01:57:16.783Z,97615.56
2022-12-29T01:59:51.102Z,97613.69
2022-12-29T02:02:18.083Z,97613.69
2022-12-29T02:04:48.982Z,97611.31
2022-12-29T02:07:21.027Z,97634.84
2022-12-29T02:09:52.807Z,97627.50
2022-12-29T02:12:21.972Z,97622.97
2022-12-29T02:14:51.948Z,97631.41
2022-12-29T02:17:24.275Z,97634.06
2022-12-29T02:20:02.879Z,97633.25
2022-12-29T02:22:50.924Z,97640.72
2022-12-29T02:25:20.528Z,97631.69
2022-12-29T02:27:54.938Z,97639.63
2022-12-29T02:30:55.572Z,97646.78
2022-12-29T02:33:37.069Z,97644.91
2022-12-29T02:36:20.564Z,97653.13
2022-12-29T02:39:01.778Z,97651.28
2022-12-29T02:41:48.085Z,97654.22
2022-12-29T02:44:31.711Z,97659.00
2022-12-29T02:47:05.599Z,97658.34
2022-12-29T02:49:39.845Z,97669.38
2022-12-29T02:52:17.932Z,97685.25
2022-12-29T02:54:45.156Z,97695.63
2022-12-29T02:57:24.001Z,97721.25
2022-12-29T02:59:58.436Z,97754.16
2022-12-29T03:02:32.673Z,97766.97
2022-12-29T03:05:28.194Z,97769.00
2022-12-29T03:08:20.725Z,97778.16
2022-12-29T03:10:54.329Z,97782.25
2022-12-29T03:13:42.587Z,97782.63
2022-12-29T03:16:24.206Z,97785.44
2022-12-29T03:18:50.716Z,97775.44
2022-12-29T03:21:48.752Z,97770.56
2022-12-29T03:24:17.074Z,97759.78
2022-12-29T03:26:47.744Z,97764.06
2022-12-29T03:29:16.331Z,97755.16
2022-12-29T03:31:43.762Z,97755.44
2022-12-29T03:34:12.111Z,97748.38
2022-12-29T03:36:49.177Z,97747.34
2022-12-29T03:39:16.131Z,97747.66
2022-12-29T03:41:45.697Z,97754.06
2022-12-29T03:44:14.158Z,97768.34
2022-12-29T03:46:41.087Z,97766.47
2022-12-29T03:49:07.663Z,97777.88
2022-12-29T03:51:34.209Z,97780.81
2022-12-29T03:54:00.872Z,97792.19
2022-12-29T03:56:27.375Z,97801.97
2022-12-29T03:58:54.021Z,97795.19
2022-12-29T04:01:20.795Z,97807.38
2022-12-29T04:03:47.498Z,97814.22
2022-12-29T04:06:14.166Z,97815.00
2022-12-29T04:08:40.833Z,97820.56
2022-12-29T04:11:07.511Z,97823.53
2022-12-29T04:13:34.126Z,97825.31
2022-12-29T04:16:00.681Z,97828.25
2022-12-29T04:18:27.214Z,97842.06
2022-12-29T04:21:03.779Z,97845.19
2022-12-29T04:23:36.875Z,97850.47
2022-12-29T04:26:03.976Z,97858.38
2022-12-29T04:28:31.534Z,97863.16
2022-12-29T04:30:58.223Z,97874.97
2022-12-29T04:33:25.368Z,97875.78
2022-12-29T04:35:53.252Z,97891.53
2022-12-29T04:38:19.798Z,97897.13
2022-12-29T04:40:46.725Z,97902.16
2022-12-29T04:43:14.211Z,97909.75
2022-12-29T04:45:45.165Z,97918.22
2022-12-29T04:48:11.773Z,97924.03
2022-12-29T04:50:38.474Z,97928.22
2022-12-29T04:53:05.077Z,97927.16
2022-12-29T04:55:31.639Z,97924.50
2022-12-29T04:57:58.164Z,97927.16
2022-12-29T05:00:24.738Z,97943.19
2022-12-29T05:02:51.414Z,97948.75
2022-12-29T05:05:18.785Z,97951.09
2022-12-29T05:07:45.741Z,97957.94
2022-12-29T05:10:12.731Z,97964.81
2022-12-29T05:12:39.744Z,97962.66
2022-12-29T05:15:08.574Z,97975.38
2022-12-29T05:17:35.228Z,97993.81
2022-12-29T05:20:01.955Z,97994.06
2022-12-29T05:22:28.504Z,98004.59
2022-12-29T05:24:55.053Z,98020.41
2022-12-29T05:27:21.613Z,98016.72
2022-12-29T05:29:48.123Z,98024.88
2022-12-29T05:32:14.731Z,98025.41
2022-12-29T05:34:41.336Z,98029.13
2022-12-29T05:37:07.880Z,98038.06
2022-12-29T05:39:34.417Z,98048.06
2022-12-29T05:42:01.918Z,98048.63
2022-12-29T05:44:28.469Z,98062.38
2022-12-29T05:46:55.129Z,98066.03
2022-12-29T05:49:21.652Z,98075.81
2022-12-29T05:51:48.154Z,98078.16
2022-12-29T05:54:14.789Z,98076.06
2022-12-29T05:56:41.327Z,98083.41
2022-12-29T05:59:07.852Z,98083.41
2022-12-29T06:01:35.410Z,98079.16
2022-12-29T06:04:02.162Z,98085.00
2022-12-29T06:06:28.784Z,98095.28
2022-12-29T06:08:55.511Z,98093.19
2022-12-29T06:11:22.018Z,98096.06
2022-12-29T06:13:48.663Z,98097.09
2022-12-29T06:16:15.260Z,98098.69
2022-12-29T06:18:41.748Z,98107.94
2022-12-29T06:21:09.053Z,98110.28
2022-12-29T06:23:35.604Z,98108.72
2022-12-29T06:26:02.097Z,98114.00
2022-12-29T06:28:28.658Z,98124.53
2022-12-29T06:30:55.256Z,98119.28
2022-12-29T06:33:22.059Z,98122.69
2022-12-29T06:35:48.715Z,98125.06
2022-12-29T06:38:15.613Z,98130.88
2022-12-29T06:40:44.077Z,98117.19
2022-12-29T06:43:10.652Z,98130.88
2022-12-29T06:45:39.909Z,98131.19
2022-12-29T06:48:06.921Z,98135.38
2022-12-29T06:50:33.425Z,98143.06
2022-12-29T06:52:59.964Z,98127.72
2022-12-29T06:55:26.856Z,98143.34
2022-12-29T06:57:59.682Z,98148.09
2022-12-29T07:00:26.362Z,98158.91
2022-12-29T07:02:53.211Z,98153.13
2022-12-29T07:05:20.008Z,98152.09
2022-12-29T07:07:46.534Z,98170.31
2022-12-29T07:10:13.078Z,98177.19
2022-12-29T07:12:39.696Z,98186.97
2022-12-29T07:15:06.802Z,98188.59
2022-12-29T07:17:33.286Z,98183.84
2022-12-29T07:20:00.397Z,98193.31
2022-12-29T07:22:27.009Z,98184.91
2022-12-29T07:24:53.514Z,98185.94
2022-12-29T07:27:20.136Z,98183.56
2022-12-29T07:29:46.687Z,98181.22
2022-12-29T07:32:13.404Z,98189.16
2022-12-29T07:34:40.807Z,98178.91
2022-12-29T07:37:07.396Z,98187.59
2022-12-29T07:39:34.027Z,98192.91
2022-12-29T07:42:04.904Z,98203.69
2022-12-29T07:44:31.929Z,98199.50
2022-12-29T07:46:58.963Z,98193.47
2022-12-29T07:49:25.798Z,98219.59
2022-12-29T07:51:52.780Z,98217.97
2022-12-29T07:54:19.478Z,98224.34
2022-12-29T07:56:46.577Z,98232.75
2022-12-29T07:59:13.190Z,98231.47
2022-12-29T08:01:40.214Z,98240.13
2022-12-29T08:04:07.160Z,98242.00
2022-12-29T08:06:33.940Z,98242.28
2022-12-29T08:09:09.819Z,98251.25
2022-12-29T08:11:39.507Z,98268.59
2022-12-29T08:14:06.031Z,98256.78
2022-12-29T08:16:33.501Z,98263.09
2022-12-29T08:19:00.248Z,98279.72
2022-12-29T08:21:28.924Z,98278.66
2022-12-29T08:23:55.660Z,98280.72
2022-12-29T08:26:22.821Z,98285.22
2022-12-29T08:28:53.565Z,98280.47
2022-12-29T08:31:20.066Z,98292.84
2022-12-29T08:33:46.668Z,98301.03
2022-12-29T08:36:13.164Z,98300.75
2022-12-29T08:38:39.687Z,98297.88
2022-12-29T08:41:06.211Z,98301.81
2022-12-29T08:43:32.755Z,98303.94
2022-12-29T08:46:00.084Z,98308.41
2022-12-29T08:48:27.773Z,98330.00
2022-12-29T08:50:54.726Z,98335.25
2022-12-29T08:53:21.752Z,98346.84
2022-12-29T08:55:57.995Z,98355.81
2022-12-29T08:58:28.236Z,98346.06
2022-12-29T09:00:55.858Z,98350.53
2022-12-29T09:03:54.556Z,98345.00
2022-12-29T09:06:10.089Z,98361.31
2022-12-29T09:08:36.665Z,98359.75
2022-12-29T09:11:10.331Z,98359.19
2022-12-29T09:13:37.015Z,98361.59
2022-12-29T09:16:04.315Z,98364.22
2022-12-29T09:18:31.447Z,98368.44
2022-12-29T09:20:59.872Z,98369.47
2022-12-29T09:23:27.360Z,98380.56
2022-12-29T09:25:54.363Z,98378.19
2022-12-29T09:28:21.779Z,98379.25
2022-12-29T09:30:48.645Z,98388.44
2022-12-29T09:33:15.681Z,98385.28
2022-12-29T09:35:43.594Z,98395.53
2022-12-29T09:38:12.000Z,98391.34
2022-12-29T09:40:40.152Z,98395.28
2022-12-29T09:43:15.707Z,98393.72
2022-12-29T09:45:51.054Z,98396.34
2022-12-29T09:48:34.052Z,98396.88
2022-12-29T09:51:04.870Z,98405.28
2022-12-29T09:53:45.693Z,98407.69
2022-12-29T09:56:18.360Z,98418.47
2022-12-29T09:59:08.461Z,98416.34
2022-12-29T10:01:42.840Z,98412.66
2022-12-29T10:04:09.954Z,98425.84
2022-12-29T10:07:27.495Z,98427.94
2022-12-29T10:09:34.173Z,98421.34
2022-12-29T10:12:48.163Z,98432.16
2022-12-29T10:15:58.537Z,98422.13
2022-12-29T10:18:55.886Z,98423.22
2022-12-29T10:21:50.228Z,98420.31
2022-12-29T10:24:18.204Z,98436.63
2022-12-29T10:26:47.329Z,98430.03
2022-12-29T10:29:19.686Z,98438.50
2022-12-29T10:31:58.976Z,98450.09
2022-12-29T10:34:35.426Z,98444.53
2022-12-29T10:37:11.753Z,98460.59
2022-12-29T10:39:45.151Z,98454.28
2022-12-29T10:42:25.003Z,98459.03
2022-12-29T10:44:51.869Z,98450.84
2022-12-29T10:47:23.147Z,98462.44
2022-12-29T10:49:50.478Z,98454.53
2022-12-29T10:52:20.044Z,98462.72
2022-12-29T10:54:46.487Z,98474.31
2022-12-29T10:57:28.488Z,98478.50
2022-12-29T10:59:55.187Z,98479.06
2022-12-29T11:02:49.627Z,98483.81
2022-12-29T11:05:16.635Z,98479.81
2022-12-29T11:07:43.325Z,98477.72
2022-12-29T11:10:41.888Z,98493.00
2022-12-29T11:13:15.247Z,98493.25
2022-12-29T11:15:47.565Z,98502.75
2022-12-29T11:18:26.541Z,98503.53
2022-12-29T11:20:56.468Z,98509.06
2022-12-29T11:23:30.703Z,98504.06
2022-12-29T11:26:06.278Z,98491.66
2022-12-29T11:28:34.282Z,98508.53
2022-12-29T11:31:03.059Z,98506.44
2022-12-29T11:33:30.590Z,98505.63
2022-12-29T11:36:11.350Z,98511.16
2022-12-29T11:38:46.470Z,98503.22
2022-12-29T11:41:19.729Z,98481.06
2022-12-29T11:43:48.596Z,98502.69
2022-12-29T11:46:19.921Z,98503.19
2022-12-29T11:48:48.896Z,98501.84
2022-12-29T11:51:25.324Z,98501.34
2022-12-29T11:53:57.044Z,98515.81
2022-12-29T11:56:40.476Z,98504.19
2022-12-29T11:59:35.257Z,98511.56
2022-12-29T12:02:12.253Z,98503.88
2022-12-29T12:04:39.676Z,98508.91
2022-12-29T12:07:13.551Z,98509.97
2022-12-29T12:09:46.527Z,98512.56
2022-12-29T12:12:24.892Z,98515.72
2022-12-29T12:15:02.794Z,98522.53
2022-12-29T12:17:39.396Z,98529.88
2022-12-29T12:20:19.814Z,98520.09
2022-12-29T12:23:14.551Z,98513.72
2022-12-29T12:26:19.294Z,98522.16
2022-12-29T12:29:24.018Z,98529.56
2022-12-29T12:31:56.736Z,98533.28
2022-12-29T12:34:36.758Z,98543.59
2022-12-29T12:37:12.191Z,98553.09
2022-12-29T12:40:08.862Z,98537.75
2022-12-29T12:43:01.396Z,98549.38
2022-12-29T12:45:31.837Z,98554.38
2022-12-29T12:48:16.350Z,98560.44
2022-12-29T12:50:48.879Z,98559.66
2022-12-29T12:53:42.829Z,98563.34
2022-12-29T12:56:27.338Z,98548.56
2022-12-29T12:59:12.735Z,98561.50
2022-12-29T13:01:42.025Z,98561.50
2022-12-29T13:04:27.072Z,98571.28
2022-12-29T13:07:16.642Z,98575.78
2022-12-29T13:10:22.417Z,98566.81
2022-12-29T13:12:48.856Z,98579.75
2022-12-29T13:15:24.889Z,98573.69
2022-12-29T13:17:54.211Z,98577.91
2022-12-29T13:20:40.424Z,98575.22
2022-12-29T13:23:40.864Z,98582.91
2022-12-29T13:26:17.373Z,98588.69
2022-12-29T13:28:52.557Z,98585.25
2022-12-29T13:31:43.382Z,98575.75
2022-12-29T13:34:45.806Z,98586.84
2022-12-29T13:37:18.055Z,98591.06
2022-12-29T13:39:50.986Z,98584.19
2022-12-29T13:42:20.573Z,98579.97
2022-12-29T13:44:59.982Z,98578.41
2022-12-29T13:47:34.495Z,98578.66
2022-12-29T13:50:03.988Z,98586.59
2022-12-29T13:52:40.678Z,98577.38
2022-12-29T13:55:30.941Z,98600.59
2022-12-29T13:58:31.584Z,98592.94
2022-12-29T14:01:07.581Z,98596.66
2022-12-29T14:03:50.694Z,98602.44
2022-12-29T14:06:17.480Z,98602.44
2022-12-29T14:08:45.031Z,98612.75
2022-12-29T14:11:15.361Z,98623.34
2022-12-29T14:13:45.491Z,98637.84
2022-12-29T14:16:35.742Z,98624.38
2022-12-29T14:19:29.740Z,98630.69
2022-12-29T14:22:03.348Z,98626.75
2022-12-29T14:24:36.005Z,98635.19
2022-12-29T14:27:08.787Z,98632.06
2022-12-29T14:29:45.072Z,98634.94
2022-12-29T14:32:26.963Z,98640.50
2022-12-29T14:34:54.547Z,98648.97
2022-12-29T14:37:40.091Z,98648.47
2022-12-29T14:40:15.767Z,98659.56
2022-12-29T14:42:43.352Z,98670.66
2022-12-29T14:45:15.884Z,98673.59
2022-12-29T14:47:47.593Z,98679.13
2022-12-29T14:50:25.810Z,98682.06
2022-12-29T14:53:04.188Z,98691.03
2022-12-29T14:55:43.191Z,98703.72
2022-12-29T14:58:18.378Z,98705.84
2022-12-29T15:00:46.364Z,98707.16
2022-12-29T15:03:29.569Z,98701.38
2022-12-29T15:06:09.168Z,98705.31
2022-12-29T15:08:46.353Z,98705.84
2022-12-29T15:11:43.724Z,98701.09
2022-12-29T15:14:37.485Z,98711.66
2022-12-29T15:17:22.754Z,98712.47
2022-12-29T15:19:49.293Z,98711.69
2022-12-29T15:22:16.146Z,98712.22
2022-12-29T15:24:43.882Z,98726.75
2022-12-29T15:27:20.555Z,98730.97
2022-12-29T15:29:48.092Z,98738.38
2022-12-29T15:32:17.695Z,98749.44
2022-12-29T15:34:46.416Z,98742.31
2022-12-29T15:37:26.489Z,98751.03
2022-12-29T15:39:54.919Z,98768.19
2022-12-29T15:42:24.244Z,98772.41
2022-12-29T15:44:58.036Z,98775.06
2022-12-29T15:47:31.127Z,98782.44
2022-12-29T15:50:23.220Z,98771.59
2022-12-29T15:52:50.075Z,98773.69
2022-12-29T15:55:37.253Z,98771.56
2022-12-29T15:58:06.648Z,98771.03
2022-12-29T16:00:38.642Z,98768.13
2022-12-29T16:03:12.266Z,98784.72
2022-12-29T16:05:40.294Z,98797.91
2022-12-29T16:08:33.924Z,98805.00
2022-12-29T16:11:16.563Z,98803.69
2022-12-29T16:13:44.506Z,98816.34
2022-12-29T16:16:20.257Z,98809.19
2022-12-29T16:18:51.862Z,98817.63
2022-12-29T16:21:26.934Z,98812.34
2022-12-29T16:23:56.044Z,98813.63
2022-12-29T16:26:24.700Z,98825.22
2022-12-29T16:28:59.320Z,98821.25
2022-12-29T16:31:48.883Z,98835.50
2022-12-29T16:34:45.247Z,98837.28
2022-12-29T16:37:32.783Z,98838.06
2022-12-29T16:40:21.221Z,98838.34
2022-12-29T16:42:52.178Z,98853.31
2022-12-29T16:45:25.117Z,98858.06
2022-12-29T16:48:06.959Z,98860.41
2022-12-29T16:50:39.340Z,98855.13
2022-12-29T16:53:08.747Z,98863.25
2022-12-29T16:55:35.486Z,98872.72
2022-12-29T16:58:02.186Z,98881.38
2022-12-29T17:00:35.319Z,98874.47
2022-12-29T17:03:03.518Z,98887.88
2022-12-29T17:05:30.151Z,98883.41
2022-12-29T17:08:01.821Z,98889.72
2022-12-29T17:10:48.627Z,98887.84
2022-12-29T17:13:15.347Z,98896.00
2022-12-29T17:15:41.977Z,98897.03
2022-12-29T17:18:13.905Z,98899.91
2022-12-29T17:20:40.872Z,98900.63
2022-12-29T17:23:19.703Z,98913.50
2022-12-29T17:25:51.584Z,98921.38
2022-12-29T17:28:27.366Z,98920.50
2022-12-29T17:30:58.259Z,98931.31
2022-12-29T17:33:25.019Z,98927.63
2022-12-29T17:35:55.369Z,98925.22
2022-12-29T17:38:26.480Z,98926.00
2022-12-29T17:40:53.122Z,98919.69
2022-12-29T17:43:20.321Z,98929.66
2022-12-29T17:45:59.595Z,98928.00
2022-12-29T17:48:26.537Z,98930.38
2022-12-29T17:50:54.486Z,98932.47
2022-12-29T17:53:28.245Z,98940.59
2022-12-29T17:55:54.858Z,98940.53
2022-12-29T17:58:23.356Z,98950.94
2022-12-29T18:00:54.906Z,98958.84
2022-12-29T18:03:34.404Z,98957.81
2022-12-29T18:06:02.191Z,98963.50
2022-12-29T18:08:29.465Z,98959.28
2022-12-29T18:10:56.787Z,98950.06
2022-12-29T18:13:30.723Z,98955.25
2022-12-29T18:16:02.624Z,98968.66
2022-12-29T18:18:29.215Z,98968.09
2022-12-29T18:20:59.415Z,98964.06
2022-12-29T18:23:27.276Z,98978.25
2022-12-29T18:25:59.107Z,98985.28
2022-12-29T18:28:26.730Z,98982.41
2022-12-29T18:30:54.078Z,98988.16
2022-12-29T18:33:24.976Z,98973.34
2022-12-29T18:35:58.708Z,98985.47
2022-12-29T18:38:25.945Z,98987.69
2022-12-29T18:40:52.877Z,98993.28
2022-12-29T18:43:20.186Z,98998.88
2022-12-29T18:45:47.482Z,99005.66
2022-12-29T18:48:15.409Z,99007.94
2022-12-29T18:50:42.105Z,99009.28
2022-12-29T18:53:23.450Z,99005.22
2022-12-29T18:55:51.433Z,99015.44
2022-12-29T18:58:18.201Z,99018.78
2022-12-29T19:00:45.464Z,99028.81
2022-12-29T19:03:13.557Z,99031.75
2022-12-29T19:05:41.783Z,99029.69
2022-12-29T19:08:10.380Z,99029.59
2022-12-29T19:10:37.966Z,99043.47
2022-12-29T19:13:05.235Z,99044.19
2022-12-29T19:15:34.973Z,99046.03
2022-12-29T19:20:52.287Z,99051.50
2022-12-29T19:23:21.256Z,99051.22
2022-12-29T19:25:49.052Z,99047.69
2022-12-29T19:28:19.401Z,99054.00
2022-12-29T19:30:51.878Z,99050.34
2022-12-29T19:33:21.209Z,99056.06
2022-12-29T19:35:48.131Z,99061.88
2022-12-29T19:38:15.041Z,99058.78
2022-12-29T19:40:44.446Z,99060.53
2022-12-29T19:43:12.224Z,99062.94
2022-12-29T19:45:43.503Z,99083.16
2022-12-29T19:48:14.903Z,99075.28
2022-12-29T19:50:41.886Z,99083.16
2022-12-29T19:53:08.437Z,99079.97
2022-12-29T19:55:35.535Z,99073.91
2022-12-29T19:58:02.087Z,99078.59
2022-12-29T20:00:28.681Z,99079.97
2022-12-29T20:02:55.481Z,99081.47
2022-12-29T20:05:22.043Z,99086.00
2022-12-29T20:07:48.547Z,99090.16
2022-12-29T20:10:15.244Z,99090.06
2022-12-29T20:12:41.814Z,99092.13
2022-12-29T20:15:09.522Z,99093.75
2022-12-29T20:20:24.060Z,99104.94
2022-12-29T20:22:50.631Z,99097.31
2022-12-29T20:28:04.015Z,99102.16
2022-12-29T20:30:30.926Z,99100.31
2022-12-29T20:32:57.529Z,99108.59
2022-12-29T20:35:24.497Z,99115.44
2022-12-29T20:37:51.091Z,99112.25
2022-12-29T20:40:17.745Z,99121.47
2022-12-29T20:42:45.053Z,99116.22
2022-12-29T20:45:11.814Z,99118.75
2022-12-29T20:47:38.312Z,99114.31
2022-12-29T20:50:05.184Z,99105.75
2022-12-29T20:52:31.726Z,99105.22
2022-12-29T20:54:58.255Z,99092.09
2022-12-29T20:57:24.898Z,99106.00
2022-12-29T20:59:51.442Z,99106.59
2022-12-29T21:02:20.983Z,99106.06
2022-12-29T21:05:22.315Z,99116.56
2022-12-29T21:07:34.545Z,99122.50
2022-12-29T21:10:01.375Z,99120.59
2022-12-29T21:12:27.872Z,99108.47
2022-12-29T21:14:54.403Z,99111.69
2022-12-29T21:17:20.964Z,99112.94
2022-12-29T21:19:47.519Z,99117.31
2022-12-29T21:22:14.097Z,99115.13
2022-12-29T21:24:40.738Z,99116.63
2022-12-29T21:27:07.338Z,99105.78
2022-12-29T21:29:33.859Z,99117.78
2022-12-29T21:32:06.267Z,99119.38
2022-12-29T21:34:34.616Z,99107.53
2022-12-29T21:37:01.688Z,99101.72
2022-12-29T21:39:28.679Z,99099.88
2022-12-29T21:42:00.166Z,99091.66
2022-12-29T21:44:46.127Z,99099.34
2022-12-29T21:47:13.128Z,99106.41
2022-12-29T21:49:39.674Z,99112.22
2022-12-29T21:52:06.209Z,99111.66
2022-12-29T21:54:51.315Z,99119.53
2022-12-29T21:57:37.862Z,99117.34
2022-12-29T22:00:28.195Z,99114.72
2022-12-29T22:03:22.153Z,99119.97
2022-12-29T22:06:09.095Z,99106.53
2022-12-29T22:08:54.502Z,99114.72
2022-12-29T22:11:39.989Z,99106.06
2022-12-29T22:14:06.820Z,99100.50
2022-12-29T22:16:33.387Z,99097.06
2022-12-29T22:19:00.032Z,99100.69
2022-12-29T22:21:26.655Z,99093.06
2022-12-29T22:23:53.356Z,99096.72
2022-12-29T22:26:19.968Z,99104.81
2022-12-29T22:28:47.927Z,99081.91
2022-12-29T22:31:25.120Z,99082.69
2022-12-29T22:33:51.754Z,99072.44
2022-12-29T22:36:18.261Z,99067.19
2022-12-29T22:38:44.766Z,99070.06
2022-12-29T22:41:11.369Z,99071.06
2022-12-29T22:43:37.868Z,99073.69
2022-12-29T22:46:07.588Z,99073.47
2022-12-29T22:48:35.149Z,99065.63
2022-12-29T22:51:02.794Z,99056.63
2022-12-29T22:53:29.340Z,99064.69
2022-12-29T22:56:16.166Z,99063.44
2022-12-29T22:58:45.093Z,99064.47
2022-12-29T23:01:13.672Z,99063.91
2022-12-29T23:03:40.887Z,99070.72
2022-12-29T23:06:11.862Z,99068.03
2022-12-29T23:08:39.550Z,99075.97
2022-12-29T23:11:08.162Z,99073.84
2022-12-29T23:13:35.025Z,99078.84
2022-12-29T23:16:01.701Z,99074.06
2022-12-29T23:18:28.951Z,99072.94
2022-12-29T23:20:55.483Z,99072.47
2022-12-29T23:23:46.526Z,99073.50
2022-12-29T23:26:16.043Z,99069.50
2022-12-29T23:28:42.770Z,99070.22
2022-12-29T23:31:10.075Z,99083.91
2022-12-29T23:33:37.181Z,99082.28
2022-12-29T23:36:04.786Z,99069.97
2022-12-29T23:38:31.533Z,99067.00
2022-12-29T23:40:58.128Z,99059.13
2022-12-29T23:43:24.833Z,99071.25
2022-12-29T23:45:51.541Z,99062.91
2022-12-29T23:48:18.522Z,99061.31
2022-12-29T23:50:45.718Z,99060.50
2022-12-29T23:53:12.618Z,99056.84
2022-12-29T23:55:42.617Z,99046.69
2022-12-29T23:58:09.949Z,99053.56
